sensor_id;sensor_type;location;lat;lon;timestamp;temperature;humidity
9907;DHT22;4992;51.628;6.664;2022-08-14T00:02:22;21.30;99.90
9907;DHT22;4992;51.628;6.664;2022-08-14T00:04:48;21.20;99.90
9907;DHT22;4992;51.628;6.664;2022-08-14T00:07:14;21.20;99.90
9907;DHT22;4992;51.628;6.664;2022-08-14T00:09:39;21.10;99.90
9907;DHT22;4992;51.628;6.664;2022-08-14T00:12:05;21.00;99.90
9907;DHT22;4992;51.628;6.664;2022-08-14T00:14:31;21.00;99.90
9907;DHT22;4992;51.628;6.664;2022-08-14T00:16:57;20.90;99.90
9907;DHT22;4992;51.628;6.664;2022-08-14T00:19:22;20.80;99.90
9907;DHT22;4992;51.628;6.664;2022-08-14T00:21:49;20.80;99.90
9907;DHT22;4992;51.628;6.664;2022-08-14T00:24:14;20.70;99.90
9907;DHT22;4992;51.628;6.664;2022-08-14T00:26:40;20.60;99.90
9907;DHT22;4992;51.628;6.664;2022-08-14T00:29:05;20.50;99.90
9907;DHT22;4992;51.628;6.664;2022-08-14T00:31:31;20.40;99.90
9907;DHT22;4992;51.628;6.664;2022-08-14T00:33:57;20.40;99.90
9907;DHT22;4992;51.628;6.664;2022-08-14T00:36:24;20.40;99.90
9907;DHT22;4992;51.628;6.664;2022-08-14T00:38:50;20.20;99.90
9907;DHT22;4992;51.628;6.664;2022-08-14T00:41:15;20.20;99.90
9907;DHT22;4992;51.628;6.664;2022-08-14T00:43:44;20.10;99.90
9907;DHT22;4992;51.628;6.664;2022-08-14T00:46:10;20.10;99.90
9907;DHT22;4992;51.628;6.664;2022-08-14T00:48:36;20.10;99.90
9907;DHT22;4992;51.628;6.664;2022-08-14T00:51:04;20.10;99.90
9907;DHT22;4992;51.628;6.664;2022-08-14T00:53:30;20.10;99.90
9907;DHT22;4992;51.628;6.664;2022-08-14T00:55:57;20.10;99.90
9907;DHT22;4992;51.628;6.664;2022-08-14T00:58:23;20.00;99.90
9907;DHT22;4992;51.628;6.664;2022-08-14T01:00:59;20.00;99.90
9907;DHT22;4992;51.628;6.664;2022-08-14T01:03:26;19.90;99.90
9907;DHT22;4992;51.628;6.664;2022-08-14T01:05:56;19.90;99.90
9907;DHT22;4992;51.628;6.664;2022-08-14T01:08:25;19.80;99.90
9907;DHT22;4992;51.628;6.664;2022-08-14T01:10:53;19.80;99.90
9907;DHT22;4992;51.628;6.664;2022-08-14T01:13:26;19.80;99.90
9907;DHT22;4992;51.628;6.664;2022-08-14T01:15:54;19.70;99.90
9907;DHT22;4992;51.628;6.664;2022-08-14T01:18:22;19.70;99.90
9907;DHT22;4992;51.628;6.664;2022-08-14T01:21:07;19.70;99.90
9907;DHT22;4992;51.628;6.664;2022-08-14T01:23:40;19.60;99.90
9907;DHT22;4992;51.628;6.664;2022-08-14T01:26:07;19.60;99.90
9907;DHT22;4992;51.628;6.664;2022-08-14T01:28:33;19.50;99.90
9907;DHT22;4992;51.628;6.664;2022-08-14T01:31:04;19.50;99.90
9907;DHT22;4992;51.628;6.664;2022-08-14T01:33:31;19.50;99.90
9907;DHT22;4992;51.628;6.664;2022-08-14T01:35:59;19.40;99.90
9907;DHT22;4992;51.628;6.664;2022-08-14T01:38:28;19.40;99.90
9907;DHT22;4992;51.628;6.664;2022-08-14T01:41:05;19.40;99.90
9907;DHT22;4992;51.628;6.664;2022-08-14T01:43:32;19.30;99.90
9907;DHT22;4992;51.628;6.664;2022-08-14T01:46:03;19.30;99.90
9907;DHT22;4992;51.628;6.664;2022-08-14T01:48:31;19.20;99.90
9907;DHT22;4992;51.628;6.664;2022-08-14T01:50:59;19.20;99.90
9907;DHT22;4992;51.628;6.664;2022-08-14T01:53:28;19.20;99.90
9907;DHT22;4992;51.628;6.664;2022-08-14T01:55:55;19.20;99.90
9907;DHT22;4992;51.628;6.664;2022-08-14T01:58:23;19.10;99.90
9907;DHT22;4992;51.628;6.664;2022-08-14T02:00:52;19.10;99.90
9907;DHT22;4992;51.628;6.664;2022-08-14T02:03:19;19.10;99.90
9907;DHT22;4992;51.628;6.664;2022-08-14T02:05:44;19.10;99.90
9907;DHT22;4992;51.628;6.664;2022-08-14T02:08:10;19.10;99.90
9907;DHT22;4992;51.628;6.664;2022-08-14T02:10:39;19.00;99.90
9907;DHT22;4992;51.628;6.664;2022-08-14T02:13:06;19.00;99.90
9907;DHT22;4992;51.628;6.664;2022-08-14T02:15:33;19.00;99.90
9907;DHT22;4992;51.628;6.664;2022-08-14T02:17:59;19.10;99.90
9907;DHT22;4992;51.628;6.664;2022-08-14T02:20:29;19.10;99.90
9907;DHT22;4992;51.628;6.664;2022-08-14T02:22:59;19.10;99.90
9907;DHT22;4992;51.628;6.664;2022-08-14T02:25:25;19.10;99.90
9907;DHT22;4992;51.628;6.664;2022-08-14T02:27:51;19.10;99.90
9907;DHT22;4992;51.628;6.664;2022-08-14T02:30:22;19.10;99.90
9907;DHT22;4992;51.628;6.664;2022-08-14T02:32:50;19.10;99.90
9907;DHT22;4992;51.628;6.664;2022-08-14T02:35:15;19.20;99.90
9907;DHT22;4992;51.628;6.664;2022-08-14T02:37:47;19.20;99.90
9907;DHT22;4992;51.628;6.664;2022-08-14T02:40:13;19.20;99.90
9907;DHT22;4992;51.628;6.664;2022-08-14T02:42:40;19.20;99.90
9907;DHT22;4992;51.628;6.664;2022-08-14T02:45:06;19.20;99.90
9907;DHT22;4992;51.628;6.664;2022-08-14T02:47:33;19.20;99.90
9907;DHT22;4992;51.628;6.664;2022-08-14T02:50:00;19.20;99.90
9907;DHT22;4992;51.628;6.664;2022-08-14T02:52:26;19.20;99.90
9907;DHT22;4992;51.628;6.664;2022-08-14T02:54:52;19.10;99.90
9907;DHT22;4992;51.628;6.664;2022-08-14T02:57:18;19.10;99.90
9907;DHT22;4992;51.628;6.664;2022-08-14T02:59:46;19.10;99.90
9907;DHT22;4992;51.628;6.664;2022-08-14T03:02:13;19.00;99.90
9907;DHT22;4992;51.628;6.664;2022-08-14T03:04:38;18.90;99.90
9907;DHT22;4992;51.628;6.664;2022-08-14T03:07:04;18.80;99.90
9907;DHT22;4992;51.628;6.664;2022-08-14T03:09:30;18.80;99.90
9907;DHT22;4992;51.628;6.664;2022-08-14T03:11:55;18.70;99.90
9907;DHT22;4992;51.628;6.664;2022-08-14T03:14:21;18.70;99.90
9907;DHT22;4992;51.628;6.664;2022-08-14T03:16:49;18.60;99.90
9907;DHT22;4992;51.628;6.664;2022-08-14T03:19:15;18.60;99.90
9907;DHT22;4992;51.628;6.664;2022-08-14T03:21:42;18.50;99.90
9907;DHT22;4992;51.628;6.664;2022-08-14T03:24:08;18.50;99.90
9907;DHT22;4992;51.628;6.664;2022-08-14T03:26:40;18.50;99.90
9907;DHT22;4992;51.628;6.664;2022-08-14T03:29:07;18.40;99.90
9907;DHT22;4992;51.628;6.664;2022-08-14T03:31:33;18.40;99.90
9907;DHT22;4992;51.628;6.664;2022-08-14T03:34:00;18.30;99.90
9907;DHT22;4992;51.628;6.664;2022-08-14T03:36:27;18.30;99.90
9907;DHT22;4992;51.628;6.664;2022-08-14T03:38:56;18.30;99.90
9907;DHT22;4992;51.628;6.664;2022-08-14T03:41:25;18.30;99.90
9907;DHT22;4992;51.628;6.664;2022-08-14T03:43:55;18.20;99.90
9907;DHT22;4992;51.628;6.664;2022-08-14T03:46:23;18.20;99.90
9907;DHT22;4992;51.628;6.664;2022-08-14T03:48:48;18.20;99.90
9907;DHT22;4992;51.628;6.664;2022-08-14T03:51:14;18.10;99.90
9907;DHT22;4992;51.628;6.664;2022-08-14T03:53:43;18.10;99.90
9907;DHT22;4992;51.628;6.664;2022-08-14T03:56:10;18.10;99.90
9907;DHT22;4992;51.628;6.664;2022-08-14T03:58:46;18.10;99.90
9907;DHT22;4992;51.628;6.664;2022-08-14T04:01:13;18.10;99.90
9907;DHT22;4992;51.628;6.664;2022-08-14T04:03:39;18.00;99.90
9907;DHT22;4992;51.628;6.664;2022-08-14T04:06:06;18.00;99.90
9907;DHT22;4992;51.628;6.664;2022-08-14T04:08:37;18.00;99.90
9907;DHT22;4992;51.628;6.664;2022-08-14T04:11:03;17.90;99.90
9907;DHT22;4992;51.628;6.664;2022-08-14T04:13:39;17.80;99.90
9907;DHT22;4992;51.628;6.664;2022-08-14T04:16:08;17.90;99.90
9907;DHT22;4992;51.628;6.664;2022-08-14T04:18:38;17.80;99.90
9907;DHT22;4992;51.628;6.664;2022-08-14T04:21:04;17.70;99.90
9907;DHT22;4992;51.628;6.664;2022-08-14T04:23:30;17.70;99.90
9907;DHT22;4992;51.628;6.664;2022-08-14T04:25:57;17.70;99.90
9907;DHT22;4992;51.628;6.664;2022-08-14T04:28:23;17.60;99.90
9907;DHT22;4992;51.628;6.664;2022-08-14T04:30:51;17.60;99.90
9907;DHT22;4992;51.628;6.664;2022-08-14T04:33:16;17.60;99.90
9907;DHT22;4992;51.628;6.664;2022-08-14T04:35:42;17.60;99.90
9907;DHT22;4992;51.628;6.664;2022-08-14T04:38:09;17.50;99.90
9907;DHT22;4992;51.628;6.664;2022-08-14T04:40:54;17.50;99.90
9907;DHT22;4992;51.628;6.664;2022-08-14T04:43:38;17.50;99.90
9907;DHT22;4992;51.628;6.664;2022-08-14T04:46:10;17.50;99.90
9907;DHT22;4992;51.628;6.664;2022-08-14T04:48:37;17.50;99.90
9907;DHT22;4992;51.628;6.664;2022-08-14T04:51:09;17.40;99.90
9907;DHT22;4992;51.628;6.664;2022-08-14T04:53:37;17.50;99.90
9907;DHT22;4992;51.628;6.664;2022-08-14T04:56:09;17.40;99.90
9907;DHT22;4992;51.628;6.664;2022-08-14T04:58:36;17.50;99.90
9907;DHT22;4992;51.628;6.664;2022-08-14T05:01:04;17.60;99.90
9907;DHT22;4992;51.628;6.664;2022-08-14T05:03:33;17.60;99.90
9907;DHT22;4992;51.628;6.664;2022-08-14T05:06:02;17.60;99.90
9907;DHT22;4992;51.628;6.664;2022-08-14T05:08:29;17.70;99.90
9907;DHT22;4992;51.628;6.664;2022-08-14T05:10:57;17.70;99.90
9907;DHT22;4992;51.628;6.664;2022-08-14T05:13:24;17.70;99.90
9907;DHT22;4992;51.628;6.664;2022-08-14T05:15:52;17.80;99.90
9907;DHT22;4992;51.628;6.664;2022-08-14T05:18:23;17.80;99.90
9907;DHT22;4992;51.628;6.664;2022-08-14T05:20:51;17.90;99.90
9907;DHT22;4992;51.628;6.664;2022-08-14T05:23:19;18.00;99.90
9907;DHT22;4992;51.628;6.664;2022-08-14T05:25:46;18.10;99.90
9907;DHT22;4992;51.628;6.664;2022-08-14T05:28:15;18.20;99.90
9907;DHT22;4992;51.628;6.664;2022-08-14T05:30:46;18.30;99.90
9907;DHT22;4992;51.628;6.664;2022-08-14T05:33:14;18.50;99.90
9907;DHT22;4992;51.628;6.664;2022-08-14T05:35:41;18.60;99.90
9907;DHT22;4992;51.628;6.664;2022-08-14T05:38:08;18.80;99.90
9907;DHT22;4992;51.628;6.664;2022-08-14T05:40:34;18.90;99.90
9907;DHT22;4992;51.628;6.664;2022-08-14T05:43:00;19.10;99.90
9907;DHT22;4992;51.628;6.664;2022-08-14T05:45:25;19.30;99.90
9907;DHT22;4992;51.628;6.664;2022-08-14T05:47:51;19.50;99.90
9907;DHT22;4992;51.628;6.664;2022-08-14T05:50:16;19.70;99.90
9907;DHT22;4992;51.628;6.664;2022-08-14T05:52:42;20.00;99.90
9907;DHT22;4992;51.628;6.664;2022-08-14T05:55:09;20.20;99.90
9907;DHT22;4992;51.628;6.664;2022-08-14T06:00:17;20.70;99.90
9907;DHT22;4992;51.628;6.664;2022-08-14T06:02:44;21.00;99.90
9907;DHT22;4992;51.628;6.664;2022-08-14T06:05:09;21.10;99.90
9907;DHT22;4992;51.628;6.664;2022-08-14T06:07:36;21.40;99.90
9907;DHT22;4992;51.628;6.664;2022-08-14T06:10:02;21.60;99.90
9907;DHT22;4992;51.628;6.664;2022-08-14T06:12:28;21.70;99.90
9907;DHT22;4992;51.628;6.664;2022-08-14T06:14:53;21.80;99.90
9907;DHT22;4992;51.628;6.664;2022-08-14T06:17:19;21.90;99.90
9907;DHT22;4992;51.628;6.664;2022-08-14T06:19:44;22.00;99.90
9907;DHT22;4992;51.628;6.664;2022-08-14T06:22:10;22.10;99.90
9907;DHT22;4992;51.628;6.664;2022-08-14T06:24:35;22.20;99.90
9907;DHT22;4992;51.628;6.664;2022-08-14T06:27:02;22.30;99.90
9907;DHT22;4992;51.628;6.664;2022-08-14T06:29:28;22.50;99.90
9907;DHT22;4992;51.628;6.664;2022-08-14T06:31:53;22.70;99.90
9907;DHT22;4992;51.628;6.664;2022-08-14T06:34:19;22.80;99.90
9907;DHT22;4992;51.628;6.664;2022-08-14T06:36:44;23.00;99.90
9907;DHT22;4992;51.628;6.664;2022-08-14T06:39:10;23.10;99.90
9907;DHT22;4992;51.628;6.664;2022-08-14T06:41:35;23.30;99.90
9907;DHT22;4992;51.628;6.664;2022-08-14T06:44:01;23.40;99.90
9907;DHT22;4992;51.628;6.664;2022-08-14T06:46:30;23.60;99.90
9907;DHT22;4992;51.628;6.664;2022-08-14T06:48:55;23.70;99.90
9907;DHT22;4992;51.628;6.664;2022-08-14T06:51:21;23.70;99.90
9907;DHT22;4992;51.628;6.664;2022-08-14T06:53:46;23.80;99.90
9907;DHT22;4992;51.628;6.664;2022-08-14T06:56:12;23.90;99.90
9907;DHT22;4992;51.628;6.664;2022-08-14T06:58:38;24.00;99.90
9907;DHT22;4992;51.628;6.664;2022-08-14T07:01:04;24.10;99.90
9907;DHT22;4992;51.628;6.664;2022-08-14T07:03:48;24.30;99.90
9907;DHT22;4992;51.628;6.664;2022-08-14T07:06:32;24.40;99.90
9907;DHT22;4992;51.628;6.664;2022-08-14T07:08:57;24.50;99.90
9907;DHT22;4992;51.628;6.664;2022-08-14T07:11:23;24.60;99.90
9907;DHT22;4992;51.628;6.664;2022-08-14T07:13:48;24.70;99.90
9907;DHT22;4992;51.628;6.664;2022-08-14T07:16:14;24.80;99.90
9907;DHT22;4992;51.628;6.664;2022-08-14T07:18:40;24.90;99.90
9907;DHT22;4992;51.628;6.664;2022-08-14T07:21:07;25.10;99.90
9907;DHT22;4992;51.628;6.664;2022-08-14T07:23:33;25.30;99.90
9907;DHT22;4992;51.628;6.664;2022-08-14T07:26:02;25.40;99.90
9907;DHT22;4992;51.628;6.664;2022-08-14T07:28:32;25.50;99.90
9907;DHT22;4992;51.628;6.664;2022-08-14T07:31:00;25.60;99.90
9907;DHT22;4992;51.628;6.664;2022-08-14T07:33:28;25.80;99.90
9907;DHT22;4992;51.628;6.664;2022-08-14T07:35:57;25.80;99.90
9907;DHT22;4992;51.628;6.664;2022-08-14T07:38:24;26.10;99.90
9907;DHT22;4992;51.628;6.664;2022-08-14T07:40:52;26.20;99.90
9907;DHT22;4992;51.628;6.664;2022-08-14T07:43:19;26.30;99.90
9907;DHT22;4992;51.628;6.664;2022-08-14T07:45:45;26.40;99.90
9907;DHT22;4992;51.628;6.664;2022-08-14T07:48:11;26.40;99.90
9907;DHT22;4992;51.628;6.664;2022-08-14T07:50:36;26.50;99.90
9907;DHT22;4992;51.628;6.664;2022-08-14T07:53:04;26.60;99.90
9907;DHT22;4992;51.628;6.664;2022-08-14T07:55:31;26.70;99.90
9907;DHT22;4992;51.628;6.664;2022-08-14T07:57:57;26.80;99.90
9907;DHT22;4992;51.628;6.664;2022-08-14T08:00:24;26.80;99.90
9907;DHT22;4992;51.628;6.664;2022-08-14T08:02:52;27.00;99.90
9907;DHT22;4992;51.628;6.664;2022-08-14T08:05:20;27.20;99.90
9907;DHT22;4992;51.628;6.664;2022-08-14T08:07:47;27.30;99.90
9907;DHT22;4992;51.628;6.664;2022-08-14T08:10:15;27.40;99.90
9907;DHT22;4992;51.628;6.664;2022-08-14T08:13:07;27.50;99.90
9907;DHT22;4992;51.628;6.664;2022-08-14T08:15:35;27.70;99.90
9907;DHT22;4992;51.628;6.664;2022-08-14T08:18:03;27.90;99.90
9907;DHT22;4992;51.628;6.664;2022-08-14T08:20:31;28.00;99.90
9907;DHT22;4992;51.628;6.664;2022-08-14T08:22:58;28.20;99.90
9907;DHT22;4992;51.628;6.664;2022-08-14T08:25:25;28.40;99.90
9907;DHT22;4992;51.628;6.664;2022-08-14T08:30:28;28.40;99.90
9907;DHT22;4992;51.628;6.664;2022-08-14T08:32:56;28.60;99.90
9907;DHT22;4992;51.628;6.664;2022-08-14T08:35:24;28.60;99.90
9907;DHT22;4992;51.628;6.664;2022-08-14T08:37:52;28.80;99.90
9907;DHT22;4992;51.628;6.664;2022-08-14T08:40:26;28.80;99.90
9907;DHT22;4992;51.628;6.664;2022-08-14T08:42:52;28.90;99.90
9907;DHT22;4992;51.628;6.664;2022-08-14T08:45:19;29.00;99.90
9907;DHT22;4992;51.628;6.664;2022-08-14T08:47:45;29.20;99.90
9907;DHT22;4992;51.628;6.664;2022-08-14T08:50:23;29.30;99.90
9907;DHT22;4992;51.628;6.664;2022-08-14T08:52:53;29.40;99.90
9907;DHT22;4992;51.628;6.664;2022-08-14T08:55:38;29.60;99.90
9907;DHT22;4992;51.628;6.664;2022-08-14T08:58:10;29.80;99.90
9907;DHT22;4992;51.628;6.664;2022-08-14T09:00:37;29.90;99.90
9907;DHT22;4992;51.628;6.664;2022-08-14T09:03:06;30.10;99.90
9907;DHT22;4992;51.628;6.664;2022-08-14T09:05:34;30.30;99.90
9907;DHT22;4992;51.628;6.664;2022-08-14T09:08:17;30.50;99.90
9907;DHT22;4992;51.628;6.664;2022-08-14T09:10:44;30.70;99.90
9907;DHT22;4992;51.628;6.664;2022-08-14T09:13:11;30.80;99.90
9907;DHT22;4992;51.628;6.664;2022-08-14T09:15:46;30.90;99.90
9907;DHT22;4992;51.628;6.664;2022-08-14T09:18:13;31.10;99.90
9907;DHT22;4992;51.628;6.664;2022-08-14T09:20:41;31.20;99.90
9907;DHT22;4992;51.628;6.664;2022-08-14T09:23:09;31.40;99.90
9907;DHT22;4992;51.628;6.664;2022-08-14T09:25:35;31.60;99.90
9907;DHT22;4992;51.628;6.664;2022-08-14T09:28:02;31.80;99.90
9907;DHT22;4992;51.628;6.664;2022-08-14T09:30:30;32.00;99.90
9907;DHT22;4992;51.628;6.664;2022-08-14T09:42:15;32.60;99.90
9907;DHT22;4992;51.628;6.664;2022-08-14T09:45:00;32.70;99.90
9907;DHT22;4992;51.628;6.664;2022-08-14T09:50:29;33.10;99.90
9907;DHT22;4992;51.628;6.664;2022-08-14T09:52:56;33.20;99.90
9907;DHT22;4992;51.628;6.664;2022-08-14T09:55:25;33.30;99.90
9907;DHT22;4992;51.628;6.664;2022-08-14T09:57:52;33.40;99.90
9907;DHT22;4992;51.628;6.664;2022-08-14T10:00:58;33.70;99.90
9907;DHT22;4992;51.628;6.664;2022-08-14T10:03:33;34.00;99.90
9907;DHT22;4992;51.628;6.664;2022-08-14T10:06:11;34.10;99.90
9907;DHT22;4992;51.628;6.664;2022-08-14T10:08:46;34.40;99.90
9907;DHT22;4992;51.628;6.664;2022-08-14T10:11:24;34.60;99.90
9907;DHT22;4992;51.628;6.664;2022-08-14T10:13:57;34.90;99.90
9907;DHT22;4992;51.628;6.664;2022-08-14T10:16:25;35.10;99.90
9907;DHT22;4992;51.628;6.664;2022-08-14T10:19:06;35.30;99.90
9907;DHT22;4992;51.628;6.664;2022-08-14T10:21:34;35.40;98.80
9907;DHT22;4992;51.628;6.664;2022-08-14T10:24:00;35.40;97.90
9907;DHT22;4992;51.628;6.664;2022-08-14T10:26:26;35.50;98.40
9907;DHT22;4992;51.628;6.664;2022-08-14T10:28:53;35.60;97.40
9907;DHT22;4992;51.628;6.664;2022-08-14T10:31:22;35.90;96.20
9907;DHT22;4992;51.628;6.664;2022-08-14T10:34:08;36.10;96.30
9907;DHT22;4992;51.628;6.664;2022-08-14T10:36:36;36.40;95.50
9907;DHT22;4992;51.628;6.664;2022-08-14T10:39:07;36.60;93.90
9907;DHT22;4992;51.628;6.664;2022-08-14T10:41:40;36.70;93.60
9907;DHT22;4992;51.628;6.664;2022-08-14T10:44:15;36.80;93.50
9907;DHT22;4992;51.628;6.664;2022-08-14T10:46:51;37.00;92.90
9907;DHT22;4992;51.628;6.664;2022-08-14T10:49:20;37.30;91.70
9907;DHT22;4992;51.628;6.664;2022-08-14T10:54:39;37.90;90.10
9907;DHT22;4992;51.628;6.664;2022-08-14T10:57:25;38.00;86.20
9907;DHT22;4992;51.628;6.664;2022-08-14T10:59:56;38.20;87.10
9907;DHT22;4992;51.628;6.664;2022-08-14T11:02:24;38.60;86.90
9907;DHT22;4992;51.628;6.664;2022-08-14T11:05:00;38.90;86.40
9907;DHT22;4992;51.628;6.664;2022-08-14T11:07:27;39.20;84.70
9907;DHT22;4992;51.628;6.664;2022-08-14T11:09:55;39.40;82.70
9907;DHT22;4992;51.628;6.664;2022-08-14T11:12:22;39.80;81.20
9907;DHT22;4992;51.628;6.664;2022-08-14T11:14:56;39.90;80.10
9907;DHT22;4992;51.628;6.664;2022-08-14T11:17:25;40.10;78.70
9907;DHT22;4992;51.628;6.664;2022-08-14T11:19:56;40.40;76.00
9907;DHT22;4992;51.628;6.664;2022-08-14T11:22:27;39.90;76.40
9907;DHT22;4992;51.628;6.664;2022-08-14T11:24:57;40.20;76.20
9907;DHT22;4992;51.628;6.664;2022-08-14T11:27:26;40.50;74.20
9907;DHT22;4992;51.628;6.664;2022-08-14T11:29:53;40.90;74.10
9907;DHT22;4992;51.628;6.664;2022-08-14T11:32:21;41.10;73.30
9907;DHT22;4992;51.628;6.664;2022-08-14T11:34:47;41.30;72.80
9907;DHT22;4992;51.628;6.664;2022-08-14T11:37:13;41.30;69.80
9907;DHT22;4992;51.628;6.664;2022-08-14T11:39:38;41.70;70.80
9907;DHT22;4992;51.628;6.664;2022-08-14T11:42:07;42.10;69.10
9907;DHT22;4992;51.628;6.664;2022-08-14T11:44:43;42.10;68.50
9907;DHT22;4992;51.628;6.664;2022-08-14T11:47:10;42.10;66.40
9907;DHT22;4992;51.628;6.664;2022-08-14T11:49:47;42.10;66.70
9907;DHT22;4992;51.628;6.664;2022-08-14T11:52:16;42.20;64.80
9907;DHT22;4992;51.628;6.664;2022-08-14T11:54:44;42.40;65.30
9907;DHT22;4992;51.628;6.664;2022-08-14T11:57:20;42.50;64.30
9907;DHT22;4992;51.628;6.664;2022-08-14T11:59:46;42.40;63.50
9907;DHT22;4992;51.628;6.664;2022-08-14T12:02:13;42.30;63.40
9907;DHT22;4992;51.628;6.664;2022-08-14T12:04:50;42.30;62.10
9907;DHT22;4992;51.628;6.664;2022-08-14T12:07:16;42.40;62.60
9907;DHT22;4992;51.628;6.664;2022-08-14T12:09:43;42.20;62.70
9907;DHT22;4992;51.628;6.664;2022-08-14T12:12:16;42.20;63.10
9907;DHT22;4992;51.628;6.664;2022-08-14T12:14:54;42.20;62.90
9907;DHT22;4992;51.628;6.664;2022-08-14T12:17:26;42.50;63.10
9907;DHT22;4992;51.628;6.664;2022-08-14T12:19:54;42.70;61.80
9907;DHT22;4992;51.628;6.664;2022-08-14T12:22:41;42.90;63.40
9907;DHT22;4992;51.628;6.664;2022-08-14T12:25:09;42.90;60.30
9907;DHT22;4992;51.628;6.664;2022-08-14T12:27:41;43.10;61.00
9907;DHT22;4992;51.628;6.664;2022-08-14T12:30:11;43.10;59.20
9907;DHT22;4992;51.628;6.664;2022-08-14T12:32:41;42.90;58.20
9907;DHT22;4992;51.628;6.664;2022-08-14T12:35:08;42.90;60.00
9907;DHT22;4992;51.628;6.664;2022-08-14T12:37:34;42.70;59.00
9907;DHT22;4992;51.628;6.664;2022-08-14T12:40:11;43.00;59.70
9907;DHT22;4992;51.628;6.664;2022-08-14T12:42:37;42.50;57.60
9907;DHT22;4992;51.628;6.664;2022-08-14T12:45:05;42.60;59.20
9907;DHT22;4992;51.628;6.664;2022-08-14T12:47:31;42.80;58.00
9907;DHT22;4992;51.628;6.664;2022-08-14T12:49:57;42.90;58.00
9907;DHT22;4992;51.628;6.664;2022-08-14T12:52:31;42.90;58.70
9907;DHT22;4992;51.628;6.664;2022-08-14T12:55:02;43.10;58.20
9907;DHT22;4992;51.628;6.664;2022-08-14T13:00:08;43.60;58.20
9907;DHT22;4992;51.628;6.664;2022-08-14T13:02:38;43.90;58.20
9907;DHT22;4992;51.628;6.664;2022-08-14T13:05:07;43.90;58.20
9907;DHT22;4992;51.628;6.664;2022-08-14T13:07:34;43.80;57.00
9907;DHT22;4992;51.628;6.664;2022-08-14T13:10:00;43.40;56.50
9907;DHT22;4992;51.628;6.664;2022-08-14T13:12:27;42.90;58.40
9907;DHT22;4992;51.628;6.664;2022-08-14T13:14:58;42.80;57.30
9907;DHT22;4992;51.628;6.664;2022-08-14T13:17:25;43.00;57.10
9907;DHT22;4992;51.628;6.664;2022-08-14T13:19:54;43.20;58.30
9907;DHT22;4992;51.628;6.664;2022-08-14T13:22:24;43.10;57.20
9907;DHT22;4992;51.628;6.664;2022-08-14T13:24:51;43.00;57.60
9907;DHT22;4992;51.628;6.664;2022-08-14T13:27:23;43.10;58.00
9907;DHT22;4992;51.628;6.664;2022-08-14T13:29:51;43.10;57.40
9907;DHT22;4992;51.628;6.664;2022-08-14T13:32:18;43.10;57.20
9907;DHT22;4992;51.628;6.664;2022-08-14T13:34:46;43.10;56.70
9907;DHT22;4992;51.628;6.664;2022-08-14T13:37:16;42.30;56.40
9907;DHT22;4992;51.628;6.664;2022-08-14T13:39:49;41.90;56.80
9907;DHT22;4992;51.628;6.664;2022-08-14T13:42:17;41.70;58.80
9907;DHT22;4992;51.628;6.664;2022-08-14T13:44:47;40.80;57.40
9907;DHT22;4992;51.628;6.664;2022-08-14T13:47:14;39.60;58.20
9907;DHT22;4992;51.628;6.664;2022-08-14T13:49:40;39.20;59.20
9907;DHT22;4992;51.628;6.664;2022-08-14T13:52:09;39.30;60.20
9907;DHT22;4992;51.628;6.664;2022-08-14T13:54:38;39.40;59.50
9907;DHT22;4992;51.628;6.664;2022-08-14T13:57:04;39.70;59.40
9907;DHT22;4992;51.628;6.664;2022-08-14T13:59:34;40.10;60.00
9907;DHT22;4992;51.628;6.664;2022-08-14T14:02:04;39.50;59.70
9907;DHT22;4992;51.628;6.664;2022-08-14T14:04:30;38.80;61.00
9907;DHT22;4992;51.628;6.664;2022-08-14T14:07:00;38.90;61.30
9907;DHT22;4992;51.628;6.664;2022-08-14T14:09:29;39.30;60.20
9907;DHT22;4992;51.628;6.664;2022-08-14T14:11:59;39.60;59.00
9907;DHT22;4992;51.628;6.664;2022-08-14T14:14:25;39.90;60.00
9907;DHT22;4992;51.628;6.664;2022-08-14T14:16:51;39.70;59.80
9907;DHT22;4992;51.628;6.664;2022-08-14T14:19:20;39.20;59.60
9907;DHT22;4992;51.628;6.664;2022-08-14T14:21:50;38.60;60.00
9907;DHT22;4992;51.628;6.664;2022-08-14T14:24:16;38.00;61.90
9907;DHT22;4992;51.628;6.664;2022-08-14T14:26:46;37.60;63.00
9907;DHT22;4992;51.628;6.664;2022-08-14T14:29:12;37.20;64.20
9907;DHT22;4992;51.628;6.664;2022-08-14T14:31:39;36.90;62.70
9907;DHT22;4992;51.628;6.664;2022-08-14T14:34:05;36.90;64.00
9907;DHT22;4992;51.628;6.664;2022-08-14T14:36:33;37.00;65.20
9907;DHT22;4992;51.628;6.664;2022-08-14T14:39:01;37.40;64.10
9907;DHT22;4992;51.628;6.664;2022-08-14T14:41:29;37.80;62.10
9907;DHT22;4992;51.628;6.664;2022-08-14T14:43:57;38.10;62.60
9907;DHT22;4992;51.628;6.664;2022-08-14T14:46:24;38.00;62.20
9907;DHT22;4992;51.628;6.664;2022-08-14T14:48:50;37.80;63.10
9907;DHT22;4992;51.628;6.664;2022-08-14T14:51:17;37.40;63.50
9907;DHT22;4992;51.628;6.664;2022-08-14T14:53:45;36.90;64.00
9907;DHT22;4992;51.628;6.664;2022-08-14T14:56:11;36.50;64.50
9907;DHT22;4992;51.628;6.664;2022-08-14T14:58:39;36.20;64.70
9907;DHT22;4992;51.628;6.664;2022-08-14T15:01:06;36.10;66.40
9907;DHT22;4992;51.628;6.664;2022-08-14T15:03:33;36.10;65.10
9907;DHT22;4992;51.628;6.664;2022-08-14T15:05:59;36.30;64.90
9907;DHT22;4992;51.628;6.664;2022-08-14T15:08:25;36.10;64.30
9907;DHT22;4992;51.628;6.664;2022-08-14T15:10:50;35.90;66.90
9907;DHT22;4992;51.628;6.664;2022-08-14T15:13:18;35.90;66.50
9907;DHT22;4992;51.628;6.664;2022-08-14T15:15:44;35.80;66.80
9907;DHT22;4992;51.628;6.664;2022-08-14T15:18:09;36.00;66.60
9907;DHT22;4992;51.628;6.664;2022-08-14T15:20:35;36.50;67.00
9907;DHT22;4992;51.628;6.664;2022-08-14T15:23:01;36.50;65.60
9907;DHT22;4992;51.628;6.664;2022-08-14T15:25:27;36.20;64.80
9907;DHT22;4992;51.628;6.664;2022-08-14T15:27:57;35.80;64.60
9907;DHT22;4992;51.628;6.664;2022-08-14T15:30:23;35.40;65.90
9907;DHT22;4992;51.628;6.664;2022-08-14T15:32:48;34.80;66.20
9907;DHT22;4992;51.628;6.664;2022-08-14T15:35:14;34.40;67.20
9907;DHT22;4992;51.628;6.664;2022-08-14T15:37:39;34.20;68.70
9907;DHT22;4992;51.628;6.664;2022-08-14T15:40:06;34.10;68.70
9907;DHT22;4992;51.628;6.664;2022-08-14T15:42:36;33.90;68.80
9907;DHT22;4992;51.628;6.664;2022-08-14T15:45:03;33.70;69.30
9907;DHT22;4992;51.628;6.664;2022-08-14T15:47:31;33.60;69.40
9907;DHT22;4992;51.628;6.664;2022-08-14T15:49:58;33.70;71.60
9907;DHT22;4992;51.628;6.664;2022-08-14T15:52:24;33.70;72.00
9907;DHT22;4992;51.628;6.664;2022-08-14T15:54:50;33.60;70.40
9907;DHT22;4992;51.628;6.664;2022-08-14T15:57:15;33.60;70.50
9907;DHT22;4992;51.628;6.664;2022-08-14T15:59:41;33.50;70.60
9907;DHT22;4992;51.628;6.664;2022-08-14T16:02:25;33.50;72.00
9907;DHT22;4992;51.628;6.664;2022-08-14T16:04:54;33.40;71.10
9907;DHT22;4992;51.628;6.664;2022-08-14T16:07:20;33.30;71.30
9907;DHT22;4992;51.628;6.664;2022-08-14T16:09:45;33.10;70.70
9907;DHT22;4992;51.628;6.664;2022-08-14T16:12:11;32.80;70.40
9907;DHT22;4992;51.628;6.664;2022-08-14T16:14:37;32.80;72.50
9907;DHT22;4992;51.628;6.664;2022-08-14T16:17:06;32.60;72.10
9907;DHT22;4992;51.628;6.664;2022-08-14T16:19:34;32.60;72.10
9907;DHT22;4992;51.628;6.664;2022-08-14T16:22:05;32.40;71.30
9907;DHT22;4992;51.628;6.664;2022-08-14T16:24:36;32.40;71.50
9907;DHT22;4992;51.628;6.664;2022-08-14T16:27:04;32.30;73.80
9907;DHT22;4992;51.628;6.664;2022-08-14T16:29:32;32.20;72.40
9907;DHT22;4992;51.628;6.664;2022-08-14T16:31:58;32.10;73.30
9907;DHT22;4992;51.628;6.664;2022-08-14T16:34:26;32.10;76.80